sensor_id;sensor_type;location;lat;lon;timestamp;temperature;humidity
28524;DHT22;15734;50.904;6.922;2023-04-21T00:01:12;8.40;99.90
28524;DHT22;15734;50.904;6.922;2023-04-21T00:03:38;8.40;99.90
28524;DHT22;15734;50.904;6.922;2023-04-21T00:06:06;8.40;99.90
28524;DHT22;15734;50.904;6.922;2023-04-21T00:08:31;8.40;99.90
28524;DHT22;15734;50.904;6.922;2023-04-21T00:10:57;8.40;99.90
28524;DHT22;15734;50.904;6.922;2023-04-21T00:13:22;8.40;99.90
28524;DHT22;15734;50.904;6.922;2023-04-21T00:15:48;8.40;99.90
28524;DHT22;15734;50.904;6.922;2023-04-21T00:18:14;8.40;99.90
28524;DHT22;15734;50.904;6.922;2023-04-21T00:20:39;8.40;99.90
28524;DHT22;15734;50.904;6.922;2023-04-21T00:23:05;8.30;99.90
28524;DHT22;15734;50.904;6.922;2023-04-21T00:25:31;8.30;99.90
28524;DHT22;15734;50.904;6.922;2023-04-21T00:27:56;8.30;99.90
28524;DHT22;15734;50.904;6.922;2023-04-21T00:30:22;8.30;99.90
28524;DHT22;15734;50.904;6.922;2023-04-21T00:32:47;8.30;99.90
28524;DHT22;15734;50.904;6.922;2023-04-21T00:35:13;8.30;99.90
28524;DHT22;15734;50.904;6.922;2023-04-21T00:37:38;8.30;99.90
28524;DHT22;15734;50.904;6.922;2023-04-21T00:40:05;8.30;99.90
28524;DHT22;15734;50.904;6.922;2023-04-21T00:42:30;8.40;99.90
28524;DHT22;15734;50.904;6.922;2023-04-21T00:44:56;8.40;99.90
28524;DHT22;15734;50.904;6.922;2023-04-21T00:47:21;8.40;99.90
28524;DHT22;15734;50.904;6.922;2023-04-21T00:49:47;8.40;99.90
28524;DHT22;15734;50.904;6.922;2023-04-21T00:52:13;8.40;99.90
28524;DHT22;15734;50.904;6.922;2023-04-21T00:54:38;8.40;99.90
28524;DHT22;15734;50.904;6.922;2023-04-21T00:57:04;8.40;99.90
28524;DHT22;15734;50.904;6.922;2023-04-21T00:59:32;8.30;99.90
28524;DHT22;15734;50.904;6.922;2023-04-21T01:01:57;8.40;99.90
28524;DHT22;15734;50.904;6.922;2023-04-21T01:04:23;8.40;99.90
28524;DHT22;15734;50.904;6.922;2023-04-21T01:06:48;8.30;99.90
28524;DHT22;15734;50.904;6.922;2023-04-21T01:09:14;8.30;99.90
28524;DHT22;15734;50.904;6.922;2023-04-21T01:11:39;8.30;99.90
28524;DHT22;15734;50.904;6.922;2023-04-21T01:14:05;8.40;99.90
28524;DHT22;15734;50.904;6.922;2023-04-21T01:16:30;8.40;99.90
28524;DHT22;15734;50.904;6.922;2023-04-21T01:18:57;8.30;99.90
28524;DHT22;15734;50.904;6.922;2023-04-21T01:21:23;8.20;99.90
28524;DHT22;15734;50.904;6.922;2023-04-21T01:23:48;8.20;99.90
28524;DHT22;15734;50.904;6.922;2023-04-21T01:26:18;8.20;99.90
28524;DHT22;15734;50.904;6.922;2023-04-21T01:28:43;8.20;99.90
28524;DHT22;15734;50.904;6.922;2023-04-21T01:31:09;8.20;99.90
28524;DHT22;15734;50.904;6.922;2023-04-21T01:33:34;8.20;99.90
28524;DHT22;15734;50.904;6.922;2023-04-21T01:36:00;8.10;99.90
28524;DHT22;15734;50.904;6.922;2023-04-21T01:38:26;8.10;99.90
28524;DHT22;15734;50.904;6.922;2023-04-21T01:40:52;8.10;99.90
28524;DHT22;15734;50.904;6.922;2023-04-21T01:43:19;8.10;99.90
28524;DHT22;15734;50.904;6.922;2023-04-21T01:45:45;8.20;99.90
28524;DHT22;15734;50.904;6.922;2023-04-21T01:48:11;8.20;99.90
28524;DHT22;15734;50.904;6.922;2023-04-21T01:50:37;8.20;99.90
28524;DHT22;15734;50.904;6.922;2023-04-21T01:53:02;8.20;99.90
28524;DHT22;15734;50.904;6.922;2023-04-21T01:55:28;8.20;99.90
28524;DHT22;15734;50.904;6.922;2023-04-21T01:57:53;8.10;99.90
28524;DHT22;15734;50.904;6.922;2023-04-21T02:00:22;8.10;99.90
28524;DHT22;15734;50.904;6.922;2023-04-21T02:02:47;8.20;99.90
28524;DHT22;15734;50.904;6.922;2023-04-21T02:05:13;8.10;99.90
28524;DHT22;15734;50.904;6.922;2023-04-21T02:07:38;8.20;99.90
28524;DHT22;15734;50.904;6.922;2023-04-21T02:10:04;8.20;99.90
28524;DHT22;15734;50.904;6.922;2023-04-21T02:12:29;8.20;99.90
28524;DHT22;15734;50.904;6.922;2023-04-21T02:14:55;8.20;99.90
28524;DHT22;15734;50.904;6.922;2023-04-21T02:17:20;8.20;99.90
28524;DHT22;15734;50.904;6.922;2023-04-21T02:19:46;8.20;99.90
28524;DHT22;15734;50.904;6.922;2023-04-21T02:22:12;8.20;99.90
28524;DHT22;15734;50.904;6.922;2023-04-21T02:24:37;8.10;99.90
28524;DHT22;15734;50.904;6.922;2023-04-21T02:27:03;8.00;99.90
28524;DHT22;15734;50.904;6.922;2023-04-21T02:29:28;8.00;99.90
28524;DHT22;15734;50.904;6.922;2023-04-21T02:31:54;7.90;99.90
28524;DHT22;15734;50.904;6.922;2023-04-21T02:34:20;7.80;99.90
28524;DHT22;15734;50.904;6.922;2023-04-21T02:36:45;7.70;99.90
28524;DHT22;15734;50.904;6.922;2023-04-21T02:39:11;7.60;99.90
28524;DHT22;15734;50.904;6.922;2023-04-21T02:41:37;7.60;99.90
28524;DHT22;15734;50.904;6.922;2023-04-21T02:44:02;7.50;99.90
28524;DHT22;15734;50.904;6.922;2023-04-21T02:46:27;7.40;99.90
28524;DHT22;15734;50.904;6.922;2023-04-21T02:48:53;7.30;99.90
28524;DHT22;15734;50.904;6.922;2023-04-21T02:51:18;7.30;99.90
28524;DHT22;15734;50.904;6.922;2023-04-21T02:53:44;7.30;99.90
28524;DHT22;15734;50.904;6.922;2023-04-21T02:56:09;7.30;99.90
28524;DHT22;15734;50.904;6.922;2023-04-21T02:58:35;7.40;99.90
28524;DHT22;15734;50.904;6.922;2023-04-21T03:01:01;7.30;99.90
28524;DHT22;15734;50.904;6.922;2023-04-21T03:03:27;7.30;99.90
28524;DHT22;15734;50.904;6.922;2023-04-21T03:05:59;7.30;99.90
28524;DHT22;15734;50.904;6.922;2023-04-21T03:08:25;7.30;99.90
28524;DHT22;15734;50.904;6.922;2023-04-21T03:10:51;7.30;99.90
28524;DHT22;15734;50.904;6.922;2023-04-21T03:13:16;7.30;99.90
28524;DHT22;15734;50.904;6.922;2023-04-21T03:15:42;7.30;99.90
28524;DHT22;15734;50.904;6.922;2023-04-21T03:18:07;7.30;99.90
28524;DHT22;15734;50.904;6.922;2023-04-21T03:20:33;7.20;99.90
28524;DHT22;15734;50.904;6.922;2023-04-21T03:22:58;7.10;99.90
28524;DHT22;15734;50.904;6.922;2023-04-21T03:25:24;6.90;99.90
28524;DHT22;15734;50.904;6.922;2023-04-21T03:27:55;6.80;99.90
28524;DHT22;15734;50.904;6.922;2023-04-21T03:30:21;6.80;99.90
28524;DHT22;15734;50.904;6.922;2023-04-21T03:32:46;6.90;99.90
28524;DHT22;15734;50.904;6.922;2023-04-21T03:35:12;6.80;99.90
28524;DHT22;15734;50.904;6.922;2023-04-21T03:37:37;6.80;99.90
28524;DHT22;15734;50.904;6.922;2023-04-21T03:40:03;6.80;99.90
28524;DHT22;15734;50.904;6.922;2023-04-21T03:42:32;6.80;99.90
28524;DHT22;15734;50.904;6.922;2023-04-21T03:45:04;6.80;99.90
28524;DHT22;15734;50.904;6.922;2023-04-21T03:47:29;6.80;99.90
28524;DHT22;15734;50.904;6.922;2023-04-21T03:49:55;6.70;99.90
28524;DHT22;15734;50.904;6.922;2023-04-21T03:52:21;6.70;99.90
28524;DHT22;15734;50.904;6.922;2023-04-21T03:54:46;6.70;99.90
28524;DHT22;15734;50.904;6.922;2023-04-21T03:57:12;6.70;99.90
28524;DHT22;15734;50.904;6.922;2023-04-21T03:59:37;6.70;99.90
28524;DHT22;15734;50.904;6.922;2023-04-21T04:02:03;6.70;99.90
28524;DHT22;15734;50.904;6.922;2023-04-21T04:04:28;6.70;99.90
28524;DHT22;15734;50.904;6.922;2023-04-21T04:06:53;6.70;99.90
28524;DHT22;15734;50.904;6.922;2023-04-21T04:09:19;6.60;99.90
28524;DHT22;15734;50.904;6.922;2023-04-21T04:11:45;6.60;99.90
28524;DHT22;15734;50.904;6.922;2023-04-21T04:14:10;6.60;99.90
28524;DHT22;15734;50.904;6.922;2023-04-21T04:16:35;6.40;99.90
28524;DHT22;15734;50.904;6.922;2023-04-21T04:19:01;6.30;99.90
28524;DHT22;15734;50.904;6.922;2023-04-21T04:21:28;6.10;99.90
28524;DHT22;15734;50.904;6.922;2023-04-21T04:23:53;6.10;99.90
28524;DHT22;15734;50.904;6.922;2023-04-21T04:26:19;6.10;99.90
28524;DHT22;15734;50.904;6.922;2023-04-21T04:28:46;6.10;99.90
28524;DHT22;15734;50.904;6.922;2023-04-21T04:31:12;6.20;99.90
28524;DHT22;15734;50.904;6.922;2023-04-21T04:33:39;6.30;99.90
28524;DHT22;15734;50.904;6.922;2023-04-21T04:36:05;6.30;99.90
28524;DHT22;15734;50.904;6.922;2023-04-21T04:38:31;6.40;99.90
28524;DHT22;15734;50.904;6.922;2023-04-21T04:40:58;6.40;99.90
28524;DHT22;15734;50.904;6.922;2023-04-21T04:43:26;6.40;99.90
28524;DHT22;15734;50.904;6.922;2023-04-21T04:45:52;6.40;99.90
28524;DHT22;15734;50.904;6.922;2023-04-21T04:48:17;6.40;99.90
28524;DHT22;15734;50.904;6.922;2023-04-21T04:50:43;6.40;99.90
28524;DHT22;15734;50.904;6.922;2023-04-21T04:53:09;6.30;99.90
28524;DHT22;15734;50.904;6.922;2023-04-21T04:55:34;6.20;99.90
28524;DHT22;15734;50.904;6.922;2023-04-21T04:58:00;6.10;99.90
28524;DHT22;15734;50.904;6.922;2023-04-21T05:00:26;6.10;99.90
28524;DHT22;15734;50.904;6.922;2023-04-21T05:02:53;6.10;99.90
28524;DHT22;15734;50.904;6.922;2023-04-21T05:05:18;6.20;99.90
28524;DHT22;15734;50.904;6.922;2023-04-21T05:07:46;6.30;99.90
28524;DHT22;15734;50.904;6.922;2023-04-21T05:10:11;6.30;99.90
28524;DHT22;15734;50.904;6.922;2023-04-21T05:12:37;6.40;99.90
28524;DHT22;15734;50.904;6.922;2023-04-21T05:15:02;6.40;99.90
28524;DHT22;15734;50.904;6.922;2023-04-21T05:17:28;6.50;99.90
28524;DHT22;15734;50.904;6.922;2023-04-21T05:19:55;6.50;99.90
28524;DHT22;15734;50.904;6.922;2023-04-21T05:22:20;6.50;99.90
28524;DHT22;15734;50.904;6.922;2023-04-21T05:24:46;6.50;99.90
28524;DHT22;15734;50.904;6.922;2023-04-21T05:27:12;6.50;99.90
28524;DHT22;15734;50.904;6.922;2023-04-21T05:29:37;6.50;99.90
28524;DHT22;15734;50.904;6.922;2023-04-21T05:32:03;6.40;99.90
28524;DHT22;15734;50.904;6.922;2023-04-21T05:34:29;6.40;99.90
28524;DHT22;15734;50.904;6.922;2023-04-21T05:36:55;6.40;99.90
28524;DHT22;15734;50.904;6.922;2023-04-21T05:39:20;6.50;99.90
28524;DHT22;15734;50.904;6.922;2023-04-21T05:41:46;6.40;99.90
28524;DHT22;15734;50.904;6.922;2023-04-21T05:44:12;6.40;99.90
28524;DHT22;15734;50.904;6.922;2023-04-21T05:46:37;6.50;99.90
28524;DHT22;15734;50.904;6.922;2023-04-21T05:49:03;6.60;99.90
28524;DHT22;15734;50.904;6.922;2023-04-21T05:51:28;6.50;99.90
28524;DHT22;15734;50.904;6.922;2023-04-21T05:53:54;6.50;99.90
28524;DHT22;15734;50.904;6.922;2023-04-21T05:56:19;6.60;99.90
28524;DHT22;15734;50.904;6.922;2023-04-21T05:58:45;6.60;99.90
28524;DHT22;15734;50.904;6.922;2023-04-21T06:01:11;6.60;99.90
28524;DHT22;15734;50.904;6.922;2023-04-21T06:03:37;6.60;99.90
28524;DHT22;15734;50.904;6.922;2023-04-21T06:06:05;6.60;99.90
28524;DHT22;15734;50.904;6.922;2023-04-21T06:08:30;6.60;99.90
28524;DHT22;15734;50.904;6.922;2023-04-21T06:10:56;6.70;99.90
28524;DHT22;15734;50.904;6.922;2023-04-21T06:13:21;6.80;99.90
28524;DHT22;15734;50.904;6.922;2023-04-21T06:15:47;6.90;99.90
28524;DHT22;15734;50.904;6.922;2023-04-21T06:18:12;7.00;99.90
28524;DHT22;15734;50.904;6.922;2023-04-21T06:20:38;7.10;99.90
28524;DHT22;15734;50.904;6.922;2023-04-21T06:23:05;7.30;99.90
28524;DHT22;15734;50.904;6.922;2023-04-21T06:25:30;7.30;99.90
28524;DHT22;15734;50.904;6.922;2023-04-21T06:27:56;7.40;99.90
28524;DHT22;15734;50.904;6.922;2023-04-21T06:30:22;7.60;99.90
28524;DHT22;15734;50.904;6.922;2023-04-21T06:32:47;7.70;99.90
28524;DHT22;15734;50.904;6.922;2023-04-21T06:35:13;7.90;99.90
28524;DHT22;15734;50.904;6.922;2023-04-21T06:37:39;7.90;99.90
28524;DHT22;15734;50.904;6.922;2023-04-21T06:40:05;8.10;99.90
28524;DHT22;15734;50.904;6.922;2023-04-21T06:42:31;8.20;99.90
28524;DHT22;15734;50.904;6.922;2023-04-21T06:44:56;8.30;99.90
28524;DHT22;15734;50.904;6.922;2023-04-21T06:47:22;8.40;99.90
28524;DHT22;15734;50.904;6.922;2023-04-21T06:49:47;8.50;99.90
28524;DHT22;15734;50.904;6.922;2023-04-21T06:52:13;8.50;99.90
28524;DHT22;15734;50.904;6.922;2023-04-21T06:54:38;8.70;99.90
28524;DHT22;15734;50.904;6.922;2023-04-21T06:57:04;8.60;99.90
28524;DHT22;15734;50.904;6.922;2023-04-21T06:59:30;8.60;99.90
28524;DHT22;15734;50.904;6.922;2023-04-21T07:01:55;8.70;99.90
28524;DHT22;15734;50.904;6.922;2023-04-21T07:04:20;8.70;99.90
28524;DHT22;15734;50.904;6.922;2023-04-21T07:06:46;8.60;99.90
28524;DHT22;15734;50.904;6.922;2023-04-21T07:09:12;8.50;99.90
28524;DHT22;15734;50.904;6.922;2023-04-21T07:11:38;8.50;99.90
28524;DHT22;15734;50.904;6.922;2023-04-21T07:14:03;8.60;99.90
28524;DHT22;15734;50.904;6.922;2023-04-21T07:16:29;8.60;99.90
28524;DHT22;15734;50.904;6.922;2023-04-21T07:18:54;8.60;99.90
28524;DHT22;15734;50.904;6.922;2023-04-21T07:21:20;8.60;99.90
28524;DHT22;15734;50.904;6.922;2023-04-21T07:23:45;8.70;99.90
28524;DHT22;15734;50.904;6.922;2023-04-21T07:26:11;8.80;99.90
28524;DHT22;15734;50.904;6.922;2023-04-21T07:28:36;8.80;99.90
28524;DHT22;15734;50.904;6.922;2023-04-21T07:31:03;8.90;99.90
28524;DHT22;15734;50.904;6.922;2023-04-21T07:33:28;8.90;99.90
28524;DHT22;15734;50.904;6.922;2023-04-21T07:35:54;9.00;99.90
28524;DHT22;15734;50.904;6.922;2023-04-21T07:38:19;9.00;99.90
28524;DHT22;15734;50.904;6.922;2023-04-21T07:40:45;9.10;99.90
28524;DHT22;15734;50.904;6.922;2023-04-21T07:43:10;9.20;99.90
28524;DHT22;15734;50.904;6.922;2023-04-21T07:45:36;9.30;99.90
28524;DHT22;15734;50.904;6.922;2023-04-21T07:48:01;9.30;99.90
28524;DHT22;15734;50.904;6.922;2023-04-21T07:50:27;9.40;99.90
28524;DHT22;15734;50.904;6.922;2023-04-21T07:52:52;9.40;99.90
28524;DHT22;15734;50.904;6.922;2023-04-21T07:55:17;9.50;99.90
28524;DHT22;15734;50.904;6.922;2023-04-21T07:57:43;9.40;99.90
28524;DHT22;15734;50.904;6.922;2023-04-21T08:00:08;9.50;99.90
28524;DHT22;15734;50.904;6.922;2023-04-21T08:02:34;9.50;99.90
28524;DHT22;15734;50.904;6.922;2023-04-21T08:05:00;9.50;99.90
28524;DHT22;15734;50.904;6.922;2023-04-21T08:07:25;9.50;99.90
28524;DHT22;15734;50.904;6.922;2023-04-21T08:09:50;9.60;99.90
28524;DHT22;15734;50.904;6.922;2023-04-21T08:12:16;9.60;99.90
28524;DHT22;15734;50.904;6.922;2023-04-21T08:14:41;9.70;99.90
28524;DHT22;15734;50.904;6.922;2023-04-21T08:17:07;9.80;99.90
28524;DHT22;15734;50.904;6.922;2023-04-21T08:19:32;9.80;99.90
28524;DHT22;15734;50.904;6.922;2023-04-21T08:21:58;9.90;99.90
28524;DHT22;15734;50.904;6.922;2023-04-21T08:24:23;10.00;99.90
28524;DHT22;15734;50.904;6.922;2023-04-21T08:26:49;10.00;99.90
28524;DHT22;15734;50.904;6.922;2023-04-21T08:29:14;10.10;99.90
28524;DHT22;15734;50.904;6.922;2023-04-21T08:31:40;10.10;99.90
28524;DHT22;15734;50.904;6.922;2023-04-21T08:34:06;10.20;99.90
28524;DHT22;15734;50.904;6.922;2023-04-21T08:36:31;10.40;99.90
28524;DHT22;15734;50.904;6.922;2023-04-21T08:38:57;10.40;99.90
28524;DHT22;15734;50.904;6.922;2023-04-21T08:41:23;10.40;99.90
28524;DHT22;15734;50.904;6.922;2023-04-21T08:43:48;10.50;99.90
28524;DHT22;15734;50.904;6.922;2023-04-21T08:46:14;10.40;99.90
28524;DHT22;15734;50.904;6.922;2023-04-21T08:48:40;10.50;99.90
28524;DHT22;15734;50.904;6.922;2023-04-21T08:51:06;10.60;99.90
28524;DHT22;15734;50.904;6.922;2023-04-21T08:53:34;10.80;99.90
28524;DHT22;15734;50.904;6.922;2023-04-21T08:56:00;10.90;99.90
28524;DHT22;15734;50.904;6.922;2023-04-21T08:58:25;11.00;99.90
28524;DHT22;15734;50.904;6.922;2023-04-21T09:00:50;11.10;99.90
28524;DHT22;15734;50.904;6.922;2023-04-21T09:03:25;11.20;99.90
28524;DHT22;15734;50.904;6.922;2023-04-21T09:06:01;11.20;99.90
28524;DHT22;15734;50.904;6.922;2023-04-21T09:08:27;11.30;99.90
28524;DHT22;15734;50.904;6.922;2023-04-21T09:10:54;11.50;99.90
28524;DHT22;15734;50.904;6.922;2023-04-21T09:13:19;11.80;99.90
28524;DHT22;15734;50.904;6.922;2023-04-21T09:15:46;12.00;99.90
28524;DHT22;15734;50.904;6.922;2023-04-21T09:18:16;12.10;99.90
28524;DHT22;15734;50.904;6.922;2023-04-21T09:20:44;12.20;99.90
28524;DHT22;15734;50.904;6.922;2023-04-21T09:23:09;12.10;99.90
28524;DHT22;15734;50.904;6.922;2023-04-21T09:25:37;12.20;99.90
28524;DHT22;15734;50.904;6.922;2023-04-21T09:28:02;12.20;99.90
28524;DHT22;15734;50.904;6.922;2023-04-21T09:30:31;12.30;99.90
28524;DHT22;15734;50.904;6.922;2023-04-21T09:32:58;12.60;99.90
28524;DHT22;15734;50.904;6.922;2023-04-21T09:35:28;12.80;99.90
28524;DHT22;15734;50.904;6.922;2023-04-21T09:37:53;13.10;99.90
28524;DHT22;15734;50.904;6.922;2023-04-21T09:40:19;13.20;99.90
28524;DHT22;15734;50.904;6.922;2023-04-21T09:42:44;13.30;99.90
28524;DHT22;15734;50.904;6.922;2023-04-21T09:45:10;13.50;99.90
28524;DHT22;15734;50.904;6.922;2023-04-21T09:47:39;13.50;99.90
28524;DHT22;15734;50.904;6.922;2023-04-21T09:50:09;13.40;99.90
28524;DHT22;15734;50.904;6.922;2023-04-21T09:52:36;13.30;99.90
28524;DHT22;15734;50.904;6.922;2023-04-21T09:55:02;13.40;99.90
28524;DHT22;15734;50.904;6.922;2023-04-21T09:57:29;13.40;99.90
28524;DHT22;15734;50.904;6.922;2023-04-21T09:59:59;13.40;99.90
28524;DHT22;15734;50.904;6.922;2023-04-21T10:02:25;13.70;99.90
28524;DHT22;15734;50.904;6.922;2023-04-21T10:04:54;14.20;99.90
28524;DHT22;15734;50.904;6.922;2023-04-21T10:07:19;14.50;99.90
28524;DHT22;15734;50.904;6.922;2023-04-21T10:09:46;15.00;99.90
28524;DHT22;15734;50.904;6.922;2023-04-21T10:12:13;15.30;99.90
28524;DHT22;15734;50.904;6.922;2023-04-21T10:14:39;15.30;99.90
28524;DHT22;15734;50.904;6.922;2023-04-21T10:17:05;15.30;99.90
28524;DHT22;15734;50.904;6.922;2023-04-21T10:19:32;14.90;99.90
28524;DHT22;15734;50.904;6.922;2023-04-21T10:22:05;15.10;99.90
28524;DHT22;15734;50.904;6.922;2023-04-21T10:24:30;15.30;99.90
28524;DHT22;15734;50.904;6.922;2023-04-21T10:26:56;15.50;99.90
28524;DHT22;15734;50.904;6.922;2023-04-21T10:29:27;15.70;99.90
28524;DHT22;15734;50.904;6.922;2023-04-21T10:31:54;16.00;99.90
28524;DHT22;15734;50.904;6.922;2023-04-21T10:34:29;15.70;99.90
28524;DHT22;15734;50.904;6.922;2023-04-21T10:41:56;15.60;99.90
28524;DHT22;15734;50.904;6.922;2023-04-21T10:44:25;16.00;99.90
28524;DHT22;15734;50.904;6.922;2023-04-21T10:46:52;16.40;99.90
28524;DHT22;15734;50.904;6.922;2023-04-21T10:49:27;16.60;99.90
28524;DHT22;15734;50.904;6.922;2023-04-21T10:57:07;16.80;99.90
28524;DHT22;15734;50.904;6.922;2023-04-21T10:59:33;16.80;99.90
28524;DHT22;15734;50.904;6.922;2023-04-21T11:01:59;17.10;99.90
28524;DHT22;15734;50.904;6.922;2023-04-21T11:04:24;17.00;99.90
28524;DHT22;15734;50.904;6.922;2023-04-21T11:07:06;17.10;99.90
28524;DHT22;15734;50.904;6.922;2023-04-21T11:09:35;16.90;99.90
28524;DHT22;15734;50.904;6.922;2023-04-21T11:12:01;17.00;99.90
28524;DHT22;15734;50.904;6.922;2023-04-21T11:14:29;17.20;99.90
28524;DHT22;15734;50.904;6.922;2023-04-21T11:16:54;17.30;99.90
28524;DHT22;15734;50.904;6.922;2023-04-21T11:19:20;17.70;99.90
28524;DHT22;15734;50.904;6.922;2023-04-21T11:21:50;17.90;99.90
28524;DHT22;15734;50.904;6.922;2023-04-21T11:24:15;18.20;99.90
28524;DHT22;15734;50.904;6.922;2023-04-21T11:26:41;18.50;99.90
28524;DHT22;15734;50.904;6.922;2023-04-21T11:29:07;18.60;99.90
28524;DHT22;15734;50.904;6.922;2023-04-21T11:31:38;18.80;99.90
28524;DHT22;15734;50.904;6.922;2023-04-21T11:34:04;18.60;99.90
28524;DHT22;15734;50.904;6.922;2023-04-21T11:36:33;18.40;99.90
28524;DHT22;15734;50.904;6.922;2023-04-21T11:39:03;18.50;99.90
28524;DHT22;15734;50.904;6.922;2023-04-21T11:41:28;18.90;99.90
28524;DHT22;15734;50.904;6.922;2023-04-21T11:43:54;19.00;99.90
28524;DHT22;15734;50.904;6.922;2023-04-21T11:46:23;19.30;99.90
28524;DHT22;15734;50.904;6.922;2023-04-21T11:48:59;19.20;99.90
28524;DHT22;15734;50.904;6.922;2023-04-21T11:51:25;18.90;99.90
28524;DHT22;15734;50.904;6.922;2023-04-21T11:53:52;19.10;99.90
28524;DHT22;15734;50.904;6.922;2023-04-21T11:56:19;19.30;99.90
28524;DHT22;15734;50.904;6.922;2023-04-21T11:58:46;19.60;99.90
28524;DHT22;15734;50.904;6.922;2023-04-21T12:01:14;19.90;99.90
28524;DHT22;15734;50.904;6.922;2023-04-21T12:03:39;20.10;99.90
28524;DHT22;15734;50.904;6.922;2023-04-21T12:06:05;20.10;97.30
28524;DHT22;15734;50.904;6.922;2023-04-21T12:08:31;20.20;99.90
28524;DHT22;15734;50.904;6.922;2023-04-21T12:10:57;20.40;99.90
28524;DHT22;15734;50.904;6.922;2023-04-21T12:13:27;20.50;99.90
28524;DHT22;15734;50.904;6.922;2023-04-21T12:15:52;20.90;99.90
28524;DHT22;15734;50.904;6.922;2023-04-21T12:18:18;21.20;99.90
28524;DHT22;15734;50.904;6.922;2023-04-21T12:20:50;21.20;99.90
28524;DHT22;15734;50.904;6.922;2023-04-21T12:23:16;20.80;99.90
28524;DHT22;15734;50.904;6.922;2023-04-21T12:25:41;20.10;99.90
28524;DHT22;15734;50.904;6.922;2023-04-21T12:28:07;19.70;99.90
28524;DHT22;15734;50.904;6.922;2023-04-21T12:30:33;19.30;99.90
28524;DHT22;15734;50.904;6.922;2023-04-21T12:32:59;19.30;99.90
28524;DHT22;15734;50.904;6.922;2023-04-21T12:35:24;19.30;99.90
28524;DHT22;15734;50.904;6.922;2023-04-21T12:37:50;20.00;99.90
28524;DHT22;15734;50.904;6.922;2023-04-21T12:40:15;20.20;99.90
28524;DHT22;15734;50.904;6.922;2023-04-21T12:42:41;19.90;99.90
28524;DHT22;15734;50.904;6.922;2023-04-21T12:45:06;19.80;99.90
28524;DHT22;15734;50.904;6.922;2023-04-21T12:47:32;20.00;99.90
28524;DHT22;15734;50.904;6.922;2023-04-21T12:50:01;19.70;99.90
28524;DHT22;15734;50.904;6.922;2023-04-21T12:52:26;19.60;99.90
28524;DHT22;15734;50.904;6.922;2023-04-21T12:54:52;19.60;99.90
28524;DHT22;15734;50.904;6.922;2023-04-21T12:57:17;19.60;99.90
28524;DHT22;15734;50.904;6.922;2023-04-21T12:59:43;20.10;99.90
28524;DHT22;15734;50.904;6.922;2023-04-21T13:02:08;20.60;99.90
28524;DHT22;15734;50.904;6.922;2023-04-21T13:04:34;20.60;99.90
28524;DHT22;15734;50.904;6.922;2023-04-21T13:07:00;20.10;99.90
28524;DHT22;15734;50.904;6.922;2023-04-21T13:09:26;20.30;99.90
28524;DHT22;15734;50.904;6.922;2023-04-21T13:11:51;20.20;99.90
28524;DHT22;15734;50.904;6.922;2023-04-21T13:14:17;19.60;99.90
28524;DHT22;15734;50.904;6.922;2023-04-21T13:16:42;19.40;99.90
28524;DHT22;15734;50.904;6.922;2023-04-21T13:19:08;19.00;99.90
28524;DHT22;15734;50.904;6.922;2023-04-21T13:21:33;18.90;99.90
28524;DHT22;15734;50.904;6.922;2023-04-21T13:23:59;18.60;99.90
28524;DHT22;15734;50.904;6.922;2023-04-21T13:26:26;18.60;99.90
28524;DHT22;15734;50.904;6.922;2023-04-21T13:28:52;18.70;99.90
28524;DHT22;15734;50.904;6.922;2023-04-21T13:31:17;18.80;99.90
28524;DHT22;15734;50.904;6.922;2023-04-21T13:33:43;19.20;99.90
28524;DHT22;15734;50.904;6.922;2023-04-21T13:36:09;19.50;99.90
28524;DHT22;15734;50.904;6.922;2023-04-21T13:38:34;20.10;99.90
28524;DHT22;15734;50.904;6.922;2023-04-21T13:41:00;20.40;99.90
28524;DHT22;15734;50.904;6.922;2023-04-21T13:43:25;20.50;99.90
28524;DHT22;15734;50.904;6.922;2023-04-21T13:45:51;20.00;99.90
28524;DHT22;15734;50.904;6.922;2023-04-21T13:48:19;19.40;99.90
28524;DHT22;15734;50.904;6.922;2023-04-21T13:50:45;19.10;99.90
28524;DHT22;15734;50.904;6.922;2023-04-21T13:53:11;19.30;99.90
28524;DHT22;15734;50.904;6.922;2023-04-21T13:55:38;19.60;99.90
28524;DHT22;15734;50.904;6.922;2023-04-21T13:58:03;20.10;99.90
28524;DHT22;15734;50.904;6.922;2023-04-21T14:00:29;20.50;99.90
28524;DHT22;15734;50.904;6.922;2023-04-21T14:02:54;20.80;99.90
28524;DHT22;15734;50.904;6.922;2023-04-21T14:05:20;20.90;99.90
28524;DHT22;15734;50.904;6.922;2023-04-21T14:07:45;20.80;99.90
28524;DHT22;15734;50.904;6.922;2023-04-21T14:10:11;20.80;99.90
28524;DHT22;15734;50.904;6.922;2023-04-21T14:12:36;20.80;99.90
28524;DHT22;15734;50.904;6.922;2023-04-21T14:15:03;21.10;99.90
28524;DHT22;15734;50.904;6.922;2023-04-21T14:17:29;21.20;99.90
28524;DHT22;15734;50.904;6.922;2023-04-21T14:19:54;21.20;99.90
28524;DHT22;15734;50.904;6.922;2023-04-21T14:22:20;21.00;99.90
28524;DHT22;15734;50.904;6.922;2023-04-21T14:24:46;20.70;99.90
28524;DHT22;15734;50.904;6.922;2023-04-21T14:27:11;21.00;99.90
28524;DHT22;15734;50.904;6.922;2023-04-21T14:29:36;20.70;99.90
28524;DHT22;15734;50.904;6.922;2023-04-21T14:32:02;20.70;99.90
28524;DHT22;15734;50.904;6.922;2023-04-21T14:34:27;20.80;99.90
28524;DHT22;15734;50.904;6.922;2023-04-21T14:36:53;20.80;99.90
28524;DHT22;15734;50.904;6.922;2023-04-21T14:39:18;21.10;99.90
28524;DHT22;15734;50.904;6.922;2023-04-21T14:41:44;20.90;99.90
28524;DHT22;15734;50.904;6.922;2023-04-21T14:44:09;20.80;99.90
28524;DHT22;15734;50.904;6.922;2023-04-21T14:46:35;20.50;99.90
28524;DHT22;15734;50.904;6.922;2023-04-21T14:49:00;20.90;99.90
28524;DHT22;15734;50.904;6.922;2023-04-21T14:51:26;20.80;99.90
28524;DHT22;15734;50.904;6.922;2023-04-21T14:53:52;20.80;98.20
28524;DHT22;15734;50.904;6.922;2023-04-21T14:56:17;20.90;99.90
28524;DHT22;15734;50.904;6.922;2023-04-21T14:58:43;21.00;99.90
28524;DHT22;15734;50.904;6.922;2023-04-21T15:01:09;21.10;99.90
28524;DHT22;15734;50.904;6.922;2023-04-21T15:03:35;20.90;98.70
28524;DHT22;15734;50.904;6.922;2023-04-21T15:06:00;20.70;98.00
28524;DHT22;15734;50.904;6.922;2023-04-21T15:08:26;20.30;99.70
28524;DHT22;15734;50.904;6.922;2023-04-21T15:10:51;19.90;99.90
28524;DHT22;15734;50.904;6.922;2023-04-21T15:13:17;19.60;99.60
28524;DHT22;15734;50.904;6.922;2023-04-21T15:15:42;20.00;99.90
28524;DHT22;15734;50.904;6.922;2023-04-21T15:18:08;20.40;99.90
28524;DHT22;15734;50.904;6.922;2023-04-21T15:20:33;20.80;99.90
28524;DHT22;15734;50.904;6.922;2023-04-21T15:22:58;20.90;98.20
28524;DHT22;15734;50.904;6.922;2023-04-21T15:25:24;21.20;99.10
28524;DHT22;15734;50.904;6.922;2023-04-21T15:27:50;21.50;98.90
28524;DHT22;15734;50.904;6.922;2023-04-21T15:30:15;21.10;96.10
28524;DHT22;15734;50.904;6.922;2023-04-21T15:32:40;20.60;96.40
28524;DHT22;15734;50.904;6.922;2023-04-21T15:35:06;20.20;97.60
28524;DHT22;15734;50.904;6.922;2023-04-21T15:37:32;20.10;98.40
28524;DHT22;15734;50.904;6.922;2023-04-21T15:39:57;19.80;99.90
28524;DHT22;15734;50.904;6.922;2023-04-21T15:42:23;19.60;99.90